Time;durP1;ratioP1;P1;durP2;ratioP2;P2;SDS_P1;SDS_P2;PMS_P1;PMS_P2;Temp;Humidity;BMP_temperature;BMP_pressure;BME280_temperature;BME280_humidity;BME280_pressure;Samples;Min_cycle;Max_cycle;Signal;HPM_P1;HPM_P2
2022/12/13 00:01:21;;;;;;;8.35;2.70;;;;;;;-3.53;100.00;100511.97;5074813;28;20048;-90
2022/12/13 00:03:47;;;;;;;7.43;2.40;;;;;;;-3.72;100.00;100485.22;5072856;28;20072;-90
2022/12/13 00:06:14;;;;;;;9.27;4.15;;;;;;;-3.62;100.00;100503.31;5074425;28;20394;-90
2022/12/13 00:08:41;;;;;;;6.40;2.60;;;;;;;-3.66;100.00;100483.63;5072110;28;20090;-90
2022/12/13 00:11:11;;;;;;;6.07;2.20;;;;;;;-3.60;100.00;100487.13;5074892;28;20129;-90
2022/12/13 00:13:40;;;;;;;6.50;2.10;;;;;;;-3.47;100.00;100496.69;5075561;28;20048;-90
2022/12/13 00:16:11;;;;;;;9.40;2.72;;;;;;;-3.66;100.00;100477.66;5074297;28;20658;-90
2022/12/13 00:18:38;;;;;;;6.80;2.28;;;;;;;-3.63;100.00;100480.25;5071658;28;20049;-90
2022/12/13 00:21:11;;;;;;;8.98;2.50;;;;;;;-3.62;100.00;100485.38;5075799;28;20470;-90
2022/12/13 00:23:41;;;;;;;7.88;2.53;;;;;;;-3.68;100.00;100487.88;5075655;28;20121;-90
2022/12/13 00:26:12;;;;;;;9.45;1.98;;;;;;;-3.60;100.00;100484.56;5074395;28;20097;-90
2022/12/13 00:28:40;;;;;;;5.10;2.08;;;;;;;-3.79;100.00;100453.53;5090318;28;20094;-90
2022/12/13 00:31:07;;;;;;;5.72;2.28;;;;;;;-3.88;100.00;100440.59;5067926;28;20053;-90
2022/12/13 00:33:54;;;;;;;6.80;2.42;;;;;;;-3.83;100.00;100444.09;5070197;28;20080;-91
2022/12/13 00:36:21;;;;;;;5.55;1.98;;;;;;;-3.68;100.00;100466.53;5074431;28;20048;-90
2022/12/13 00:38:59;;;;;;;7.95;2.13;;;;;;;-3.94;100.00;100427.72;5069621;28;20094;-91
2022/12/13 00:41:31;;;;;;;4.60;1.80;;;;;;;-3.74;100.00;100456.19;5055230;28;20049;-91
2022/12/13 00:43:58;;;;;;;5.30;2.00;;;;;;;-3.84;100.00;100425.34;5055542;28;20049;-90
2022/12/13 00:46:26;;;;;;;5.05;2.15;;;;;;;-3.87;100.00;100430.41;5073879;28;20041;-90
2022/12/13 00:48:55;;;;;;;7.43;2.55;;;;;;;-3.72;100.00;100492.88;5078704;28;20041;-90
2022/12/13 00:51:23;;;;;;;6.25;2.15;;;;;;;-3.72;100.00;100488.66;5072879;28;20367;-90
2022/12/13 00:53:50;;;;;;;5.65;2.30;;;;;;;-4.11;100.00;100422.31;5070315;28;20110;-90
2022/12/13 00:56:20;;;;;;;6.30;1.98;;;;;;;-3.83;100.00;100460.31;5067353;28;20078;-89
2022/12/13 00:58:48;;;;;;;5.57;1.92;;;;;;;-4.20;100.00;100416.25;5074318;28;20041;-89
2022/12/13 01:01:23;;;;;;;5.20;1.90;;;;;;;-3.80;100.00;100497.88;5073442;28;20371;-89
2022/12/13 01:03:54;;;;;;;6.13;1.98;;;;;;;-4.06;100.00;100441.16;5053664;28;20136;-90
2022/12/13 01:06:43;;;;;;;6.30;2.33;;;;;;;-4.16;100.00;100434.16;5066060;28;20052;-90
2022/12/13 01:09:19;;;;;;;12.18;2.60;;;;;;;-3.98;100.00;100454.06;5073186;28;20127;-89
2022/12/13 01:11:47;;;;;;;4.35;1.80;;;;;;;-3.83;100.00;100485.03;5090254;28;20053;-89
2022/12/13 01:14:15;;;;;;;6.03;1.98;;;;;;;-4.09;100.00;100436.00;5074339;28;20053;-90
2022/12/13 01:16:42;;;;;;;10.82;2.72;;;;;;;-4.14;100.00;100440.16;5073503;28;20071;-89
2022/12/13 01:19:08;;;;;;;9.57;2.53;;;;;;;-4.17;100.00;100417.13;5072266;28;20075;-89
2022/12/13 01:21:35;;;;;;;7.43;2.45;;;;;;;-4.35;100.00;100418.50;5072897;28;20056;-89
2022/12/13 01:24:04;;;;;;;6.63;2.53;;;;;;;-4.03;100.00;100474.47;5073278;28;20129;-90
2022/12/13 01:26:32;;;;;;;6.18;2.35;;;;;;;-4.33;100.00;100421.94;5073989;28;20059;-90
2022/12/13 01:28:59;;;;;;;9.88;3.00;;;;;;;-4.13;100.00;100447.00;5070020;28;20707;-90
2022/12/13 01:31:26;;;;;;;4.47;2.15;;;;;;;-3.90;100.00;100468.72;5053013;28;20057;-90
2022/12/13 01:33:52;;;;;;;7.10;2.33;;;;;;;-3.83;100.00;100480.78;5080217;28;20433;-90
2022/12/13 01:36:21;;;;;;;5.72;2.25;;;;;;;-4.36;100.00;100411.66;5073049;28;20055;-90
2022/12/13 01:38:55;;;;;;;6.63;2.30;;;;;;;-4.09;100.00;100449.66;5067905;28;20045;-90
2022/12/13 01:41:25;;;;;;;6.20;2.13;;;;;;;-3.88;100.00;100479.88;5053667;28;20463;-91
2022/12/13 01:43:59;;;;;;;7.22;2.53;;;;;;;-4.04;100.00;100465.94;5068083;28;20044;-90
2022/12/13 01:46:27;;;;;;;7.97;2.72;;;;;;;-4.38;100.00;100405.66;5055794;28;20071;-90
2022/12/13 01:49:08;;;;;;;5.43;2.30;;;;;;;-4.36;100.00;100410.81;5073007;28;20084;-90
2022/12/13 01:51:53;;;;;;;5.22;2.10;;;;;;;-3.89;100.00;100480.69;5059291;28;20058;-89
2022/12/13 01:54:26;;;;;;;8.52;2.20;;;;;;;-4.17;100.00;100437.56;5074389;28;20048;-90
2022/12/13 01:57:04;;;;;;;11.35;2.20;;;;;;;-4.37;100.00;100404.84;5088929;28;20497;-90
2022/12/13 01:59:33;;;;;;;6.00;2.00;;;;;;;-4.13;100.00;100455.53;5072914;28;20057;-90
2022/12/13 02:02:00;;;;;;;4.70;1.92;;;;;;;-4.26;100.00;100464.69;5072756;28;20052;-90
2022/12/13 02:04:45;;;;;;;9.38;2.08;;;;;;;-4.57;100.00;100401.91;5062091;28;20053;-90
2022/12/13 02:07:15;;;;;;;5.90;1.92;;;;;;;-4.28;100.00;100447.59;5090863;28;20052;-90
2022/12/13 02:09:51;;;;;;;4.90;2.08;;;;;;;-4.31;100.00;100447.53;5073085;28;20428;-90
2022/12/13 02:12:25;;;;;;;7.10;1.88;;;;;;;-4.61;100.00;100398.44;5052589;28;20053;-90
2022/12/13 02:14:58;;;;;;;5.85;2.10;;;;;;;-4.70;100.00;100393.16;5062056;28;20071;-90
2022/12/13 02:17:32;;;;;;;6.68;2.10;;;;;;;-4.08;100.00;100479.50;5071183;28;20068;-90
2022/12/13 02:20:14;;;;;;;4.97;1.90;;;;;;;-4.07;100.00;100472.69;5072114;28;20052;-90
2022/12/13 02:23:14;;;;;;;5.57;1.73;;;;;;;-4.46;100.00;100420.88;5067649;28;20127;-90
2022/12/13 02:26:05;;;;;;;6.55;2.03;;;;;;;-4.05;100.00;100465.91;5055980;28;20473;-90
2022/12/13 02:28:44;;;;;;;4.75;1.77;;;;;;;-4.10;100.00;100464.97;5060874;28;20394;-90
2022/12/13 02:31:23;;;;;;;6.00;2.03;;;;;;;-4.55;100.00;100387.50;5082704;28;20126;-90
2022/12/13 02:34:05;;;;;;;4.57;1.70;;;;;;;-4.31;100.00;100407.50;5072275;28;20167;-90
2022/12/13 02:36:54;;;;;;;4.18;1.63;;;;;;;-4.08;100.00;100459.03;5070482;28;20052;-90
2022/12/13 02:39:45;;;;;;;7.30;2.00;;;;;;;-4.53;100.00;100407.94;5079935;28;20102;-90
2022/12/13 02:42:24;;;;;;;6.03;1.90;;;;;;;-4.22;100.00;100450.25;5069438;28;20063;-90
2022/12/13 02:45:14;;;;;;;4.85;1.83;;;;;;;-4.07;100.00;100447.97;5065794;28;20502;-90
2022/12/13 02:47:48;;;;;;;6.55;2.03;;;;;;;-4.39;100.00;100401.41;5080202;28;20123;-89
2022/12/13 02:50:15;;;;;;;3.65;1.65;;;;;;;-4.69;100.00;100348.91;5062420;28;20053;-90
2022/12/13 02:52:45;;;;;;;4.45;1.70;;;;;;;-4.04;100.00;100434.38;5068935;28;20055;-89
2022/12/13 02:55:15;;;;;;;5.68;2.30;;;;;;;-3.99;100.00;100435.31;5067592;28;20058;-90
2022/12/13 02:57:46;;;;;;;5.60;1.73;;;;;;;-4.17;100.00;100384.72;5086656;28;20044;-89
2022/12/13 03:00:18;;;;;;;7.00;2.33;;;;;;;-4.50;100.00;100346.66;5067484;28;20044;-88
2022/12/13 03:03:18;;;;;;;5.75;2.08;;;;;;;-3.80;100.00;100416.03;5070870;28;20404;-89
2022/12/13 03:06:30;;;;;;;3.53;1.83;;;;;;;-3.94;100.00;100423.47;5068318;28;20428;-88
2022/12/13 03:09:31;;;;;;;4.18;1.90;;;;;;;-3.86;100.00;100427.03;5083758;28;20155;-89
2022/12/13 03:15:16;;;;;;;4.50;2.17;;;;;;;-4.15;100.00;100398.41;5065637;28;20049;-88
2022/12/13 03:17:51;;;;;;;3.03;1.58;;;;;;;-4.43;100.00;100374.06;5074516;28;20044;-89
2022/12/13 03:20:23;;;;;;;5.93;1.52;;;;;;;-4.41;100.00;100385.16;5074205;28;20099;-88
2022/12/13 03:22:54;;;;;;;6.63;2.13;;;;;;;-4.38;100.00;100410.78;5073957;28;20049;-88
2022/12/13 03:25:23;;;;;;;5.45;2.13;;;;;;;-4.48;100.00;100414.00;5063735;28;20049;-88
2022/12/13 03:27:59;;;;;;;7.15;2.20;;;;;;;-4.75;100.00;100404.13;5071580;28;20044;-89
2022/12/13 03:30:29;;;;;;;5.60;2.00;;;;;;;-4.97;100.00;100381.59;5074868;28;20480;-89
2022/12/13 03:32:56;;;;;;;7.40;2.25;;;;;;;-4.71;100.00;100406.78;5073577;28;20098;-89
2022/12/13 03:35:23;;;;;;;4.35;1.90;;;;;;;-4.62;100.00;100403.50;5060237;28;20434;-89
2022/12/13 03:38:01;;;;;;;5.50;2.05;;;;;;;-4.79;100.00;100385.34;5086244;28;20049;-89
2022/12/13 03:40:29;;;;;;;5.60;2.10;;;;;;;-4.83;100.00;100369.09;5068140;28;20052;-88
2022/12/13 03:42:56;;;;;;;4.05;1.98;;;;;;;-4.68;100.00;100381.28;5056785;28;20071;-88
2022/12/13 03:45:23;;;;;;;5.60;2.45;;;;;;;-4.51;100.00;100399.47;5071817;28;20053;-88
2022/12/13 03:47:49;;;;;;;4.72;1.77;;;;;;;-4.36;100.00;100414.22;5061783;28;20445;-89
2022/12/13 03:50:16;;;;;;;3.15;1.52;;;;;;;-4.68;100.00;100368.50;5060867;28;20102;-88
2022/12/13 03:53:00;;;;;;;3.95;1.70;;;;;;;-4.47;100.00;100398.69;5075396;28;20437;-89
2022/12/13 03:55:27;;;;;;;4.75;2.00;;;;;;;-4.46;100.00;100399.53;5074750;28;20048;-88
2022/12/13 03:57:55;;;;;;;4.35;1.92;;;;;;;-4.67;100.00;100362.56;5075847;28;20429;-88
2022/12/13 04:00:21;;;;;;;5.40;1.63;;;;;;;-4.60;100.00;100384.00;5074977;28;20444;-88
2022/12/13 04:02:48;;;;;;;4.00;1.70;;;;;;;-4.38;100.00;100392.88;5074378;28;20098;-89
2022/12/13 04:05:15;;;;;;;4.30;1.85;;;;;;;-4.70;100.00;100346.31;5077388;28;20079;-89
2022/12/13 04:07:43;;;;;;;4.68;1.77;;;;;;;-4.26;100.00;100418.66;5075579;28;20057;-88
2022/12/13 04:10:15;;;;;;;6.82;2.03;;;;;;;-4.67;100.00;100354.91;5090721;28;20052;-89
2022/12/13 04:15:38;;;;;;;3.15;1.70;;;;;;;-4.33;100.00;100387.88;5073555;28;20057;-88
2022/12/13 04:18:05;;;;;;;6.15;1.92;;;;;;;-4.20;100.00;100402.56;5075043;28;20040;-89
2022/12/13 04:20:32;;;;;;;2.78;1.48;;;;;;;-4.44;100.00;100368.09;5074903;28;20474;-89
2022/12/13 04:22:59;;;;;;;6.30;1.70;;;;;;;-4.40;100.00;100395.41;5091259;28;20487;-88
2022/12/13 04:25:36;;;;;;;5.35;1.65;;;;;;;-4.34;100.00;100398.91;5074816;28;20063;-89
2022/12/13 04:28:03;;;;;;;4.20;1.80;;;;;;;-4.41;100.00;100406.50;5089663;28;20098;-90
2022/12/13 04:30:30;;;;;;;4.75;1.80;;;;;;;-4.50;100.00;100367.97;5074626;28;20449;-90
2022/12/13 04:32:57;;;;;;;5.13;1.83;;;;;;;-4.81;100.00;100346.13;5074813;28;20478;-89
2022/12/13 04:35:23;;;;;;;4.10;1.70;;;;;;;-4.93;100.00;100325.47;5066336;28;20155;-89
2022/12/13 04:37:50;;;;;;;4.78;1.92;;;;;;;-4.60;100.00;100382.28;5067866;28;20045;-89
2022/12/13 04:40:17;;;;;;;4.03;1.90;;;;;;;-4.54;100.00;100373.88;5073630;28;20125;-89
2022/12/13 04:42:48;;;;;;;3.92;1.92;;;;;;;-4.45;100.00;100381.69;5073828;28;20080;-89
2022/12/13 04:45:20;;;;;;;3.65;1.83;;;;;;;-4.29;100.00;100404.97;5053278;28;20057;-89
2022/12/13 04:47:47;;;;;;;4.43;1.80;;;;;;;-4.36;100.00;100400.59;5066138;28;20048;-89
2022/12/13 04:50:14;;;;;;;3.40;1.52;;;;;;;-4.56;100.00;100380.66;5074922;28;20053;-89
2022/12/13 04:52:41;;;;;;;5.22;1.95;;;;;;;-4.60;100.00;100396.78;5073703;28;20052;-89
2022/12/13 04:55:08;;;;;;;5.20;1.98;;;;;;;-4.90;100.00;100357.03;5074556;28;20059;-89
2022/12/13 04:57:35;;;;;;;5.50;2.20;;;;;;;-4.84;100.00;100377.56;5073074;28;20056;-88
2022/12/13 05:00:03;;;;;;;7.13;2.20;;;;;;;-4.83;100.00;100375.91;5071251;28;20045;-89
2022/12/13 05:02:30;;;;;;;7.00;2.00;;;;;;;-5.22;100.00;100326.63;5073453;28;20049;-89
2022/12/13 05:04:57;;;;;;;3.78;1.67;;;;;;;-5.07;100.00;100322.66;5060463;28;20045;-89
2022/12/13 05:07:25;;;;;;;3.75;1.77;;;;;;;-4.63;100.00;100378.81;5059975;28;20060;-90
2022/12/13 05:09:51;;;;;;;2.60;1.50;;;;;;;-4.54;100.00;100391.75;5074254;28;20113;-89
2022/12/13 05:12:18;;;;;;;2.95;1.45;;;;;;;-4.81;100.00;100362.31;5073389;28;20056;-90
2022/12/13 05:14:50;;;;;;;4.15;1.77;;;;;;;-4.81;100.00;100356.34;5074207;28;20053;-89
2022/12/13 05:17:17;;;;;;;3.10;1.67;;;;;;;-4.84;100.00;100372.47;5072561;28;20056;-89
2022/12/13 05:19:43;;;;;;;3.25;1.60;;;;;;;-4.87;100.00;100387.75;5072927;28;20134;-89
2022/12/13 05:22:17;;;;;;;5.32;1.90;;;;;;;-4.85;100.00;100373.31;5073652;28;20056;-90
2022/12/13 05:24:47;;;;;;;4.70;1.90;;;;;;;-4.75;100.00;100396.47;5074118;28;20502;-89
2022/12/13 05:27:14;;;;;;;7.28;2.15;;;;;;;-4.97;100.00;100398.59;5077129;28;20395;-88
2022/12/13 05:29:55;;;;;;;4.10;1.75;;;;;;;-5.32;100.00;100359.59;5074025;28;20689;-88
2022/12/13 05:32:38;;;;;;;4.78;1.92;;;;;;;-5.35;100.00;100376.56;5088566;28;20570;-89
2022/12/13 05:35:19;;;;;;;3.22;1.65;;;;;;;-5.42;100.00;100326.25;5072778;28;20429;-88
2022/12/13 05:37:48;;;;;;;3.72;1.80;;;;;;;-5.07;100.00;100404.34;5072029;28;20079;-88
2022/12/13 05:40:23;;;;;;;5.80;1.92;;;;;;;-5.08;100.00;100403.50;5081337;28;20049;-89
2022/12/13 05:42:50;;;;;;;7.18;2.10;;;;;;;-5.20;100.00;100376.00;5083392;28;20051;-89
2022/12/13 05:45:17;;;;;;;3.15;1.67;;;;;;;-5.32;100.00;100350.22;5058524;28;20044;-89
2022/12/13 05:47:45;;;;;;;5.55;2.15;;;;;;;-4.93;100.00;100399.53;5071964;28;20483;-89
2022/12/13 05:50:14;;;;;;;4.18;1.60;;;;;;;-5.18;100.00;100345.41;5072541;28;20044;-89
2022/12/13 05:52:42;;;;;;;3.38;1.80;;;;;;;-5.23;100.00;100341.91;5072643;28;20048;-90
2022/12/13 05:55:09;;;;;;;4.32;1.83;;;;;;;-4.98;100.00;100367.06;5072279;28;20056;-90
2022/12/13 05:57:36;;;;;;;3.33;1.73;;;;;;;-5.29;100.00;100311.13;5066768;28;20048;-89
2022/12/13 06:00:06;;;;;;;3.25;1.63;;;;;;;-4.98;100.00;100341.53;5071665;28;20098;-89
2022/12/13 06:02:53;;;;;;;3.83;1.65;;;;;;;-4.86;100.00;100357.94;5072550;28;20716;-89
2022/12/13 06:05:20;;;;;;;8.20;2.03;;;;;;;-4.81;100.00;100376.78;5070800;28;20071;-90
2022/12/13 06:07:47;;;;;;;5.13;1.90;;;;;;;-5.10;100.00;100326.00;5070978;28;20044;-90
2022/12/13 06:10:22;;;;;;;2.78;1.63;;;;;;;-4.90;100.00;100362.13;5059057;28;20052;-89
2022/12/13 06:12:49;;;;;;;3.65;1.73;;;;;;;-5.19;100.00;100320.72;5072103;28;20048;-90
2022/12/13 06:15:16;;;;;;;4.40;1.80;;;;;;;-5.07;100.00;100343.94;5088876;28;20399;-90
2022/12/13 06:17:48;;;;;;;6.45;2.10;;;;;;;-5.12;100.00;100321.69;5086735;28;20072;-89
2022/12/13 06:20:15;;;;;;;3.25;1.65;;;;;;;-5.05;100.00;100337.16;5057985;28;20126;-90
2022/12/13 06:22:51;;;;;;;4.25;1.60;;;;;;;-5.02;100.00;100324.44;5075018;28;20048;-89
2022/12/13 06:25:18;;;;;;;3.70;1.70;;;;;;;-4.86;100.00;100340.94;5071979;28;20094;-89
2022/12/13 06:27:58;;;;;;;6.10;1.90;;;;;;;-5.03;100.00;100326.97;5061610;28;20139;-89
2022/12/13 06:30:27;;;;;;;3.70;1.70;;;;;;;-4.90;100.00;100344.25;5071634;28;20412;-89
2022/12/13 06:32:54;;;;;;;5.25;1.77;;;;;;;-4.86;100.00;100371.56;5072166;28;20508;-89
2022/12/13 06:35:21;;;;;;;2.95;1.75;;;;;;;-5.22;100.00;100308.75;5072092;28;20097;-89
2022/12/13 06:37:55;;;;;;;3.97;1.58;;;;;;;-5.00;100.00;100361.09;5071606;28;20465;-90
2022/12/13 06:40:32;;;;;;;3.80;1.90;;;;;;;-4.82;100.00;100393.78;5068345;28;20061;-88
2022/12/13 06:42:59;;;;;;;5.35;1.83;;;;;;;-4.86;100.00;100375.84;5062902;28;20052;-90
2022/12/13 06:45:26;;;;;;;3.88;1.60;;;;;;;-5.03;100.00;100355.06;5075919;28;20393;-89
2022/12/13 06:47:54;;;;;;;3.70;1.70;;;;;;;-4.93;100.00;100381.66;5082410;28;20048;-89
2022/12/13 06:50:21;;;;;;;3.30;1.60;;;;;;;-5.25;100.00;100311.25;5068064;28;20177;-88
2022/12/13 06:52:48;;;;;;;3.35;1.60;;;;;;;-5.02;100.00;100347.44;5071113;28;20056;-88
2022/12/13 06:55:15;;;;;;;3.05;1.70;;;;;;;-5.14;100.00;100324.22;5087975;28;20056;-88
2022/12/13 06:57:50;;;;;;;3.28;1.58;;;;;;;-4.88;100.00;100372.38;5065241;28;20127;-90
2022/12/13 07:00:17;;;;;;;3.75;1.60;;;;;;;-4.96;100.00;100347.56;5080419;28;20045;-89
2022/12/13 07:02:53;;;;;;;4.23;1.90;;;;;;;-4.73;100.00;100374.38;5067672;28;20055;-90
2022/12/13 07:05:21;;;;;;;9.25;1.75;;;;;;;-5.12;100.00;100304.69;5067736;28;20078;-90
2022/12/13 07:07:48;;;;;;;3.67;1.80;;;;;;;-5.21;100.00;100279.00;5067556;28;20110;-90
2022/12/13 07:10:15;;;;;;;5.07;1.83;;;;;;;-4.85;100.00;100362.22;5065782;28;20041;-90
2022/12/13 07:12:48;;;;;;;3.42;1.75;;;;;;;-4.82;100.00;100381.00;5078196;28;20051;-89
2022/12/13 07:15:15;;;;;;;5.40;2.05;;;;;;;-4.96;100.00;100362.88;5073013;28;20045;-90
2022/12/13 07:17:42;;;;;;;7.95;2.50;;;;;;;-5.20;100.00;100345.38;5070102;28;20059;-88
2022/12/13 07:20:13;;;;;;;5.90;2.08;;;;;;;-5.20;100.00;100358.16;5069416;28;20128;-87
2022/12/13 07:22:40;;;;;;;5.25;2.15;;;;;;;-5.30;100.00;100363.03;5072803;28;20101;-87
2022/12/13 07:25:14;;;;;;;5.97;2.25;;;;;;;-5.25;100.00;100338.47;5067000;28;20122;-88
2022/12/13 07:27:59;;;;;;;4.30;1.73;;;;;;;-4.90;100.00;100374.06;5057687;28;20060;-87
2022/12/13 07:30:34;;;;;;;7.13;2.00;;;;;;;-5.09;100.00;100334.53;5056367;28;20471;-92
2022/12/13 07:33:07;;;;;;;6.32;1.90;;;;;;;-5.17;100.00;100330.13;5072259;28;20493;-91
2022/12/13 07:35:34;;;;;;;3.13;1.50;;;;;;;-4.94;100.00;100362.88;5073213;28;20513;-89
2022/12/13 07:38:03;;;;;;;5.90;2.05;;;;;;;-5.47;100.00;100276.81;5088515;28;20127;-90
2022/12/13 07:40:33;;;;;;;3.85;1.88;;;;;;;-5.12;100.00;100326.81;5071725;28;20152;-89
2022/12/13 07:43:00;;;;;;;3.28;1.70;;;;;;;-5.20;100.00;100327.53;5075173;28;20063;-89
2022/12/13 07:45:27;;;;;;;3.72;1.85;;;;;;;-5.02;100.00;100356.78;5060894;28;20456;-89
2022/12/13 07:47:54;;;;;;;3.97;1.75;;;;;;;-5.09;100.00;100330.28;5071197;28;20125;-88
2022/12/13 07:50:22;;;;;;;3.85;1.60;;;;;;;-4.65;100.00;100401.78;5065872;28;20147;-88
2022/12/13 07:52:50;;;;;;;5.10;1.90;;;;;;;-4.88;100.00;100355.38;5065037;28;20102;-87
2022/12/13 07:55:17;;;;;;;2.88;1.50;;;;;;;-5.23;100.00;100301.06;5064027;28;20044;-89
2022/12/13 07:57:48;;;;;;;2.45;1.50;;;;;;;-5.28;100.00;100313.72;5061289;28;20051;-88
2022/12/13 08:00:16;;;;;;;3.58;1.63;;;;;;;-5.35;100.00;100314.44;5065085;28;20422;-89
2022/12/13 08:02:42;;;;;;;3.78;1.70;;;;;;;-5.26;100.00;100316.31;5070549;28;20079;-89
2022/12/13 08:05:23;;;;;;;3.35;1.70;;;;;;;-5.27;100.00;100307.81;5091649;28;20120;-89
2022/12/13 08:08:06;;;;;;;5.10;1.70;;;;;;;-4.92;100.00;100348.50;5090168;28;20126;-88
2022/12/13 08:10:46;;;;;;;;;;;;;;;-4.57;100.00;100389.13;5089624;28;20051;-86
2022/12/13 08:13:14;;;;;;;3.03;1.60;;;;;;;-4.94;100.00;100352.69;5088977;28;19924;-87
2022/12/13 08:15:41;;;;;;;2.83;1.65;;;;;;;-4.93;100.00;100367.19;5069299;28;20071;-87
2022/12/13 08:18:22;;;;;;;3.50;1.60;;;;;;;-4.90;100.00;100402.16;5082315;28;20091;-86
2022/12/13 08:21:04;;;;;;;3.60;1.58;;;;;;;-4.68;100.00;100400.84;5092792;28;20063;-88
2022/12/13 08:23:45;;;;;;;3.88;1.90;;;;;;;-4.82;100.00;100398.88;5091498;28;20036;-89
2022/12/13 08:26:26;;;;;;;3.72;1.70;;;;;;;-5.17;100.00;100339.47;5068902;28;20081;-89
2022/12/13 08:29:06;;;;;;;7.90;1.90;;;;;;;-4.73;100.00;100410.97;5093794;28;20071;-89
2022/12/13 08:31:50;;;;;;;4.75;1.60;;;;;;;-4.83;100.00;100374.19;5077504;28;20071;-88
2022/12/13 08:34:31;;;;;;;3.50;1.70;;;;;;;-4.89;100.00;100396.19;5080249;28;20383;-88
2022/12/13 08:36:59;;;;;;;3.58;1.45;;;;;;;-5.16;100.00;100364.19;5088591;28;20044;-87
2022/12/13 08:39:43;;;;;;;6.05;1.65;;;;;;;-5.04;100.00;100374.63;5071588;28;20046;-89
2022/12/13 08:42:24;;;;;;;4.10;1.67;;;;;;;-5.04;100.00;100376.34;5079613;28;20529;-89
2022/12/13 08:45:05;;;;;;;5.13;2.20;;;;;;;-4.99;100.00;100388.34;5085609;28;20114;-89
2022/12/13 08:47:45;;;;;;;3.85;1.77;;;;;;;-4.94;100.00;100390.97;5083640;28;20108;-89
2022/12/13 08:50:28;;;;;;;3.85;1.50;;;;;;;-5.74;100.00;100251.56;5083751;28;20044;-90
2022/12/13 08:53:08;;;;;;;17.53;12.87;;;;;;;-4.60;100.00;100433.38;5089900;28;20094;-88
2022/12/13 08:56:01;;;;;;;5.82;3.08;;;;;;;-4.82;100.00;100386.13;5079367;28;20338;-88
2022/12/13 08:58:42;;;;;;;6.57;3.13;;;;;;;-4.50;100.00;100405.44;5072469;28;20057;-88
2022/12/13 09:01:11;;;;;;;5.10;2.05;;;;;;;-5.15;100.00;100307.19;5090684;28;20092;-88
2022/12/13 09:03:51;;;;;;;5.53;2.00;;;;;;;-4.77;100.00;100407.50;5090095;28;20041;-88
2022/12/13 09:06:24;;;;;;;5.45;2.00;;;;;;;-4.87;100.00;100344.34;5099629;28;20036;-89
2022/12/13 09:09:04;;;;;;;7.55;2.03;;;;;;;-4.80;100.00;100379.38;5088869;28;20072;-88
2022/12/13 09:11:45;;;;;;;4.18;1.80;;;;;;;-4.70;100.00;100416.16;5090549;28;20040;-86
2022/12/13 09:14:26;;;;;;;2.92;1.70;;;;;;;-4.55;100.00;100420.72;5083441;28;20037;-88
2022/12/13 09:17:01;;;;;;;4.72;1.80;;;;;;;-4.34;100.00;100437.25;5090728;28;20041;-89
2022/12/13 09:19:42;;;;;;;4.43;1.80;;;;;;;-4.57;100.00;100389.13;5069506;28;20032;-87
2022/12/13 09:22:22;;;;;;;5.55;2.00;;;;;;;-4.29;100.00;100427.97;5073808;28;20044;-88
2022/12/13 09:25:04;;;;;;;4.28;1.73;;;;;;;-4.35;100.00;100410.84;5091536;28;20036;-88
2022/12/13 09:27:45;;;;;;;8.10;2.03;;;;;;;-4.18;100.00;100420.50;5090149;28;20044;-88
2022/12/13 09:30:27;;;;;;;4.40;2.03;;;;;;;-4.29;100.00;100407.53;5092297;28;20056;-89
2022/12/13 09:33:07;;;;;;;2.97;1.48;;;;;;;-4.12;100.00;100424.03;5090922;28;20052;-89
2022/12/13 09:35:48;;;;;;;4.60;1.80;;;;;;;-4.26;100.00;100400.78;5079649;28;20098;-88
2022/12/13 09:38:46;;;;;;;3.67;1.50;;;;;;;-3.91;100.00;100443.09;5087089;28;20044;-90
2022/12/13 09:41:34;;;;;;;3.95;1.88;;;;;;;-3.85;100.00;100454.31;5091171;28;20791;-89
2022/12/13 09:44:23;;;;;;;4.53;1.90;;;;;;;-3.91;100.00;100451.66;5088995;28;20059;-90
2022/12/13 09:47:04;;;;;;;6.03;2.10;;;;;;;-4.36;100.00;100373.31;5106512;28;20054;-89
2022/12/13 09:49:45;;;;;;;6.18;2.53;;;;;;;-4.11;100.00;100414.66;5069275;28;20075;-90
2022/12/13 09:52:36;;;;;;;3.80;1.65;;;;;;;-4.15;100.00;100408.63;5071274;28;20061;-91
2022/12/13 09:55:51;;;;;;;6.00;1.98;;;;;;;-3.88;100.00;100425.25;5083002;28;20087;-90
2022/12/13 09:58:36;;;;;;;4.55;2.00;;;;;;;-4.17;100.00;100369.38;5089853;28;20043;-90
2022/12/13 10:01:17;;;;;;;6.10;1.88;;;;;;;-3.96;100.00;100391.03;5086849;28;20070;-90
2022/12/13 10:03:51;;;;;;;5.47;1.48;;;;;;;-3.83;100.00;100395.50;5084301;28;20059;-91
2022/12/13 10:06:33;;;;;;;;;;;;;;;-3.31;100.00;100446.59;5099261;28;20044;-90
2022/12/13 10:09:14;;;;;;;7.03;1.92;;;;;;;-3.44;100.00;100412.28;5088870;28;19935;-90
2022/12/13 10:11:54;;;;;;;6.57;1.98;;;;;;;-3.55;100.00;100378.84;5090876;28;20048;-91
2022/12/13 10:14:39;;;;;;;6.80;1.98;;;;;;;-3.21;100.00;100407.47;5091336;28;20147;-91
2022/12/13 10:17:24;;;;;;;5.60;2.00;;;;;;;-3.19;100.00;100394.69;5088230;28;20044;-90
2022/12/13 10:20:06;;;;;;;4.85;2.40;;;;;;;-3.09;100.00;100419.59;5095701;28;20071;-89
2022/12/13 10:22:33;;;;;;;4.63;1.80;;;;;;;-3.01;100.00;100405.19;5106464;28;20048;-87
2022/12/13 10:25:15;;;;;;;5.70;1.92;;;;;;;-3.08;100.00;100401.69;5097147;28;20555;-92
2022/12/13 10:27:56;;;;;;;7.00;2.33;;;;;;;-2.79;100.00;100431.91;5099516;28;20109;-91
2022/12/13 10:30:42;;;;;;;5.35;2.13;;;;;;;-2.87;100.00;100380.59;5092639;28;20044;-90
2022/12/13 10:33:35;;;;;;;4.05;1.90;;;;;;;-2.90;100.00;100352.38;5071072;28;20040;-91
2022/12/13 10:36:30;;;;;;;7.47;2.42;;;;;;;-2.24;100.00;100431.66;5085227;28;20096;-90
2022/12/13 10:39:36;;;;;;;3.40;1.73;;;;;;;-2.10;100.00;100432.66;5093930;28;20039;-88
2022/12/13 10:42:19;;;;;;;6.15;2.38;;;;;;;-2.02;100.00;100424.16;5091790;28;20106;-89
2022/12/13 10:45:14;;;;;;;4.85;2.15;;;;;;;-2.13;100.00;100378.75;5089083;28;20045;-89
2022/12/13 10:47:55;;;;;;;6.25;1.98;;;;;;;-1.92;100.00;100387.47;5097646;28;20067;-90
2022/12/13 10:50:36;;;;;;;7.20;2.05;;;;;;;-1.60;100.00;100389.41;5078081;28;20021;-89
2022/12/13 10:53:19;;;;;;;6.70;2.50;;;;;;;-1.20;100.00;100408.47;5082258;28;20036;-90
2022/12/13 10:56:00;;;;;;;;;;;;;;;-0.75;100.00;100403.53;5093591;28;20040;-89
2022/12/13 10:58:45;;;;;;;6.22;1.92;;;;;;;-0.78;100.00;100382.94;5084724;28;19952;-90
2022/12/13 11:01:28;;;;;;;4.15;1.83;;;;;;;-0.56;100.00;100376.16;5091687;28;20079;-89
2022/12/13 11:04:26;;;;;;;3.45;1.70;;;;;;;-0.61;100.00;100365.00;5090088;28;20037;-89
2022/12/13 11:07:28;;;;;;;6.18;2.00;;;;;;;-0.49;100.00;100383.03;5073571;28;20086;-90
2022/12/13 11:10:25;;;;;;;6.53;1.85;;;;;;;-0.29;100.00;100413.91;5079853;28;20031;-88
2022/12/13 11:13:07;;;;;;;3.67;1.55;;;;;;;-0.82;100.00;100337.53;5085685;28;20037;-89
2022/12/13 11:15:54;;;;;;;6.05;2.20;;;;;;;-0.49;100.00;100382.19;5089159;28;20033;-89
2022/12/13 11:18:37;;;;;;;3.20;1.50;;;;;;;-0.21;100.00;100395.94;5085868;28;20106;-88
2022/12/13 11:21:26;;;;;;;6.63;2.13;;;;;;;-0.09;100.00;100406.25;5091302;28;20103;-88
2022/12/13 11:24:08;;;;;;;3.95;1.63;;;;;;;0.05;100.00;100407.97;5086114;28;20052;-88
2022/12/13 11:26:56;;;;;;;4.75;1.70;;;;;;;-0.08;100.00;100364.19;5097156;28;20052;-89
2022/12/13 11:30:10;;;;;;;4.85;1.60;;;;;;;0.27;100.00;100401.94;5085776;28;20049;-88
2022/12/13 11:33:01;;;;;;;4.03;1.55;;;;;;;0.42;100.00;100405.38;5080247;28;20056;-90
2022/12/13 11:35:58;;;;;;;3.72;1.55;;;;;;;0.44;100.00;100398.47;5099109;28;20605;-90
2022/12/13 11:39:09;;;;;;;2.90;1.50;;;;;;;0.50;100.00;100380.47;5050301;28;20047;-89
2022/12/13 11:42:19;;;;;;;8.32;3.80;;;;;;;0.38;100.00;100351.28;5095584;28;20044;-90
2022/12/13 11:45:23;;;;;;;5.53;2.35;;;;;;;0.51;100.00;100388.19;5094177;28;20055;-90
2022/12/13 11:48:08;;;;;;;5.70;1.80;;;;;;;0.53;100.00;100383.00;5101757;28;20123;-88
2022/12/13 11:50:43;;;;;;;5.88;1.98;;;;;;;0.37;100.00;100377.03;5109553;28;20038;-89
2022/12/13 11:53:47;;;;;;;6.72;1.90;;;;;;;0.12;100.00;100361.59;5092235;28;20041;-88
2022/12/13 11:56:30;;;;;;;5.45;2.20;;;;;;;0.46;100.00;100389.91;5082740;28;20057;-89
2022/12/13 11:59:35;;;;;;;8.40;2.58;;;;;;;0.66;100.00;100389.88;5088488;28;20044;-90
2022/12/13 12:02:08;;;;;;;9.05;2.42;;;;;;;0.44;100.00;100396.75;5085908;28;20478;-89
2022/12/13 12:04:54;;;;;;;7.88;2.83;;;;;;;0.52;100.00;100368.44;5091244;28;20502;-90